sensor_id;sensor_type;location;lat;lon;timestamp;P1;durP1;ratioP1;P2;durP2;ratioP2
25437;SDS011;13364;49.084;9.978;2022-07-29T00:02:26;5.10;;;3.90;;
25437;SDS011;13364;49.084;9.978;2022-07-29T00:04:54;5.60;;;4.07;;
25437;SDS011;13364;49.084;9.978;2022-07-29T00:07:21;6.40;;;4.10;;
25437;SDS011;13364;49.084;9.978;2022-07-29T00:09:48;5.43;;;4.10;;
25437;SDS011;13364;49.084;9.978;2022-07-29T00:12:21;6.38;;;4.00;;
25437;SDS011;13364;49.084;9.978;2022-07-29T00:14:51;6.22;;;4.07;;
25437;SDS011;13364;49.084;9.978;2022-07-29T00:17:22;4.88;;;3.72;;
25437;SDS011;13364;49.084;9.978;2022-07-29T00:19:50;7.00;;;4.10;;
25437;SDS011;13364;49.084;9.978;2022-07-29T00:22:17;4.35;;;3.97;;
25437;SDS011;13364;49.084;9.978;2022-07-29T00:24:44;7.57;;;4.40;;
25437;SDS011;13364;49.084;9.978;2022-07-29T00:33:59;6.43;;;4.50;;
25437;SDS011;13364;49.084;9.978;2022-07-29T00:36:26;5.65;;;4.13;;
25437;SDS011;13364;49.084;9.978;2022-07-29T00:38:54;5.03;;;4.53;;
25437;SDS011;13364;49.084;9.978;2022-07-29T00:41:21;4.10;;;3.75;;
25437;SDS011;13364;49.084;9.978;2022-07-29T00:43:48;6.85;;;4.15;;
25437;SDS011;13364;49.084;9.978;2022-07-29T00:46:15;7.15;;;4.55;;
25437;SDS011;13364;49.084;9.978;2022-07-29T00:48:42;4.43;;;4.03;;
25437;SDS011;13364;49.084;9.978;2022-07-29T00:51:09;5.00;;;4.30;;
25437;SDS011;13364;49.084;9.978;2022-07-29T00:53:37;5.65;;;3.80;;
25437;SDS011;13364;49.084;9.978;2022-07-29T00:56:04;5.07;;;4.20;;
25437;SDS011;13364;49.084;9.978;2022-07-29T00:58:31;6.47;;;4.55;;
25437;SDS011;13364;49.084;9.978;2022-07-29T01:00:59;4.43;;;4.03;;
25437;SDS011;13364;49.084;9.978;2022-07-29T01:03:26;6.90;;;4.43;;
25437;SDS011;13364;49.084;9.978;2022-07-29T01:05:53;7.18;;;4.47;;
25437;SDS011;13364;49.084;9.978;2022-07-29T01:08:21;4.68;;;4.18;;
25437;SDS011;13364;49.084;9.978;2022-07-29T01:10:50;5.13;;;4.35;;
25437;SDS011;13364;49.084;9.978;2022-07-29T01:13:20;7.18;;;4.60;;
25437;SDS011;13364;49.084;9.978;2022-07-29T01:15:49;5.15;;;4.20;;
25437;SDS011;13364;49.084;9.978;2022-07-29T01:18:32;4.38;;;3.97;;
25437;SDS011;13364;49.084;9.978;2022-07-29T01:24:22;5.38;;;4.60;;
25437;SDS011;13364;49.084;9.978;2022-07-29T01:29:55;4.97;;;4.25;;
25437;SDS011;13364;49.084;9.978;2022-07-29T01:32:29;5.88;;;4.63;;
25437;SDS011;13364;49.084;9.978;2022-07-29T01:37:35;8.02;;;5.30;;
25437;SDS011;13364;49.084;9.978;2022-07-29T01:40:42;6.63;;;4.90;;
25437;SDS011;13364;49.084;9.978;2022-07-29T01:43:21;6.35;;;5.22;;
25437;SDS011;13364;49.084;9.978;2022-07-29T01:45:57;5.80;;;4.60;;
25437;SDS011;13364;49.084;9.978;2022-07-29T01:51:07;5.72;;;5.07;;
25437;SDS011;13364;49.084;9.978;2022-07-29T01:53:57;6.85;;;5.30;;
25437;SDS011;13364;49.084;9.978;2022-07-29T01:56:47;4.88;;;4.45;;
25437;SDS011;13364;49.084;9.978;2022-07-29T01:59:17;7.55;;;5.38;;
25437;SDS011;13364;49.084;9.978;2022-07-29T02:01:46;8.63;;;5.43;;
25437;SDS011;13364;49.084;9.978;2022-07-29T02:04:19;5.63;;;5.00;;
25437;SDS011;13364;49.084;9.978;2022-07-29T02:06:57;6.03;;;4.88;;
25437;SDS011;13364;49.084;9.978;2022-07-29T02:09:28;8.13;;;5.28;;
25437;SDS011;13364;49.084;9.978;2022-07-29T02:11:57;8.75;;;6.07;;
25437;SDS011;13364;49.084;9.978;2022-07-29T02:14:28;6.70;;;6.00;;
25437;SDS011;13364;49.084;9.978;2022-07-29T02:16:59;6.85;;;5.30;;
25437;SDS011;13364;49.084;9.978;2022-07-29T02:19:29;6.28;;;5.10;;
25437;SDS011;13364;49.084;9.978;2022-07-29T02:21:58;5.68;;;5.10;;
25437;SDS011;13364;49.084;9.978;2022-07-29T02:24:27;6.95;;;5.28;;
25437;SDS011;13364;49.084;9.978;2022-07-29T02:26:56;9.48;;;5.63;;
25437;SDS011;13364;49.084;9.978;2022-07-29T02:29:26;5.07;;;4.55;;
25437;SDS011;13364;49.084;9.978;2022-07-29T02:31:54;5.90;;;5.30;;
25437;SDS011;13364;49.084;9.978;2022-07-29T02:34:23;6.32;;;5.40;;
25437;SDS011;13364;49.084;9.978;2022-07-29T02:36:51;6.55;;;4.80;;
25437;SDS011;13364;49.084;9.978;2022-07-29T02:39:20;6.20;;;5.30;;
25437;SDS011;13364;49.084;9.978;2022-07-29T02:41:51;8.63;;;5.07;;
25437;SDS011;13364;49.084;9.978;2022-07-29T02:44:23;6.22;;;5.35;;
25437;SDS011;13364;49.084;9.978;2022-07-29T02:50:16;7.53;;;4.85;;
25437;SDS011;13364;49.084;9.978;2022-07-29T02:52:44;5.97;;;5.43;;
25437;SDS011;13364;49.084;9.978;2022-07-29T02:55:40;5.53;;;5.03;;
25437;SDS011;13364;49.084;9.978;2022-07-29T03:00:39;6.05;;;5.45;;
25437;SDS011;13364;49.084;9.978;2022-07-29T03:03:09;6.25;;;5.53;;
25437;SDS011;13364;49.084;9.978;2022-07-29T03:05:39;8.38;;;6.00;;
25437;SDS011;13364;49.084;9.978;2022-07-29T03:11:25;7.13;;;5.47;;
25437;SDS011;13364;49.084;9.978;2022-07-29T03:14:13;5.72;;;5.20;;
25437;SDS011;13364;49.084;9.978;2022-07-29T03:16:41;7.90;;;5.70;;
25437;SDS011;13364;49.084;9.978;2022-07-29T03:19:08;7.05;;;5.32;;
25437;SDS011;13364;49.084;9.978;2022-07-29T03:21:35;4.72;;;4.30;;
25437;SDS011;13364;49.084;9.978;2022-07-29T03:24:02;7.65;;;5.25;;
25437;SDS011;13364;49.084;9.978;2022-07-29T03:26:35;6.20;;;5.13;;
25437;SDS011;13364;49.084;9.978;2022-07-29T03:29:03;6.28;;;5.68;;
25437;SDS011;13364;49.084;9.978;2022-07-29T03:31:31;7.20;;;5.65;;
25437;SDS011;13364;49.084;9.978;2022-07-29T03:33:58;7.30;;;4.95;;
25437;SDS011;13364;49.084;9.978;2022-07-29T03:36:26;7.40;;;5.70;;
25437;SDS011;13364;49.084;9.978;2022-07-29T03:38:53;8.93;;;5.57;;
25437;SDS011;13364;49.084;9.978;2022-07-29T03:41:21;7.93;;;5.63;;
25437;SDS011;13364;49.084;9.978;2022-07-29T03:43:50;8.40;;;5.68;;
25437;SDS011;13364;49.084;9.978;2022-07-29T03:48:50;13.07;;;5.70;;
25437;SDS011;13364;49.084;9.978;2022-07-29T03:51:22;6.68;;;5.15;;
25437;SDS011;13364;49.084;9.978;2022-07-29T03:54:00;6.18;;;5.32;;
25437;SDS011;13364;49.084;9.978;2022-07-29T03:56:37;7.57;;;5.28;;
25437;SDS011;13364;49.084;9.978;2022-07-29T03:59:07;6.70;;;5.60;;
25437;SDS011;13364;49.084;9.978;2022-07-29T04:01:35;7.27;;;5.63;;
25437;SDS011;13364;49.084;9.978;2022-07-29T04:04:04;7.10;;;6.37;;
25437;SDS011;13364;49.084;9.978;2022-07-29T04:06:41;8.65;;;6.40;;
25437;SDS011;13364;49.084;9.978;2022-07-29T04:09:11;6.83;;;6.13;;
25437;SDS011;13364;49.084;9.978;2022-07-29T04:11:39;7.80;;;6.18;;
25437;SDS011;13364;49.084;9.978;2022-07-29T04:14:26;7.53;;;6.25;;
25437;SDS011;13364;49.084;9.978;2022-07-29T04:16:53;9.32;;;5.72;;
25437;SDS011;13364;49.084;9.978;2022-07-29T04:19:21;7.80;;;5.70;;
25437;SDS011;13364;49.084;9.978;2022-07-29T04:21:48;8.18;;;5.60;;
25437;SDS011;13364;49.084;9.978;2022-07-29T04:24:16;7.45;;;5.68;;
25437;SDS011;13364;49.084;9.978;2022-07-29T04:26:45;6.10;;;5.40;;
25437;SDS011;13364;49.084;9.978;2022-07-29T04:29:12;6.80;;;5.77;;
25437;SDS011;13364;49.084;9.978;2022-07-29T04:31:41;5.28;;;4.70;;
25437;SDS011;13364;49.084;9.978;2022-07-29T04:34:09;5.97;;;5.35;;
25437;SDS011;13364;49.084;9.978;2022-07-29T04:36:36;8.63;;;5.30;;
25437;SDS011;13364;49.084;9.978;2022-07-29T04:39:04;5.60;;;5.10;;
25437;SDS011;13364;49.084;9.978;2022-07-29T04:41:31;8.98;;;5.78;;
25437;SDS011;13364;49.084;9.978;2022-07-29T04:44:00;7.93;;;5.85;;
25437;SDS011;13364;49.084;9.978;2022-07-29T04:46:38;6.97;;;4.93;;
25437;SDS011;13364;49.084;9.978;2022-07-29T04:49:05;7.47;;;5.40;;
25437;SDS011;13364;49.084;9.978;2022-07-29T04:51:32;8.15;;;6.25;;
25437;SDS011;13364;49.084;9.978;2022-07-29T04:54:00;6.68;;;5.30;;
25437;SDS011;13364;49.084;9.978;2022-07-29T04:56:27;6.07;;;5.45;;
25437;SDS011;13364;49.084;9.978;2022-07-29T04:58:54;10.43;;;6.97;;
25437;SDS011;13364;49.084;9.978;2022-07-29T05:01:21;8.50;;;5.90;;
25437;SDS011;13364;49.084;9.978;2022-07-29T05:03:48;8.25;;;6.32;;
25437;SDS011;13364;49.084;9.978;2022-07-29T05:06:15;8.00;;;6.47;;
25437;SDS011;13364;49.084;9.978;2022-07-29T05:08:42;7.90;;;7.20;;
25437;SDS011;13364;49.084;9.978;2022-07-29T05:11:09;10.10;;;7.80;;
25437;SDS011;13364;49.084;9.978;2022-07-29T05:13:40;9.80;;;7.22;;
25437;SDS011;13364;49.084;9.978;2022-07-29T05:16:12;9.65;;;7.78;;
25437;SDS011;13364;49.084;9.978;2022-07-29T05:18:40;10.07;;;7.50;;
25437;SDS011;13364;49.084;9.978;2022-07-29T05:21:08;7.68;;;6.55;;
25437;SDS011;13364;49.084;9.978;2022-07-29T05:23:35;9.50;;;7.60;;
25437;SDS011;13364;49.084;9.978;2022-07-29T05:26:02;8.23;;;6.60;;
25437;SDS011;13364;49.084;9.978;2022-07-29T05:28:32;8.50;;;7.65;;
25437;SDS011;13364;49.084;9.978;2022-07-29T05:31:01;10.40;;;7.70;;
25437;SDS011;13364;49.084;9.978;2022-07-29T05:33:28;11.52;;;7.80;;
25437;SDS011;13364;49.084;9.978;2022-07-29T05:36:03;10.18;;;7.10;;
25437;SDS011;13364;49.084;9.978;2022-07-29T05:38:34;8.07;;;7.07;;
25437;SDS011;13364;49.084;9.978;2022-07-29T05:41:02;9.23;;;7.45;;
25437;SDS011;13364;49.084;9.978;2022-07-29T05:43:29;8.43;;;7.25;;
25437;SDS011;13364;49.084;9.978;2022-07-29T05:45:57;7.90;;;7.10;;
25437;SDS011;13364;49.084;9.978;2022-07-29T05:48:35;7.10;;;6.40;;
25437;SDS011;13364;49.084;9.978;2022-07-29T05:51:02;10.00;;;6.22;;
25437;SDS011;13364;49.084;9.978;2022-07-29T05:53:30;9.63;;;6.50;;
25437;SDS011;13364;49.084;9.978;2022-07-29T05:55:57;8.65;;;6.10;;
25437;SDS011;13364;49.084;9.978;2022-07-29T05:58:24;6.85;;;6.22;;
25437;SDS011;13364;49.084;9.978;2022-07-29T06:00:51;8.57;;;5.95;;
25437;SDS011;13364;49.084;9.978;2022-07-29T06:03:19;12.35;;;6.18;;
25437;SDS011;13364;49.084;9.978;2022-07-29T06:05:46;7.30;;;6.55;;
25437;SDS011;13364;49.084;9.978;2022-07-29T06:08:13;6.72;;;6.13;;
25437;SDS011;13364;49.084;9.978;2022-07-29T06:10:40;6.03;;;5.47;;
25437;SDS011;13364;49.084;9.978;2022-07-29T06:13:07;10.07;;;5.80;;
25437;SDS011;13364;49.084;9.978;2022-07-29T06:15:34;7.78;;;6.18;;
25437;SDS011;13364;49.084;9.978;2022-07-29T06:18:01;8.32;;;5.78;;
25437;SDS011;13364;49.084;9.978;2022-07-29T06:20:29;6.68;;;5.72;;
25437;SDS011;13364;49.084;9.978;2022-07-29T06:22:58;7.60;;;5.57;;
25437;SDS011;13364;49.084;9.978;2022-07-29T06:25:25;8.35;;;5.43;;
25437;SDS011;13364;49.084;9.978;2022-07-29T06:27:55;5.70;;;5.10;;
25437;SDS011;13364;49.084;9.978;2022-07-29T06:30:23;5.90;;;5.40;;
25437;SDS011;13364;49.084;9.978;2022-07-29T06:32:50;6.35;;;5.50;;
25437;SDS011;13364;49.084;9.978;2022-07-29T06:35:17;9.48;;;5.60;;
25437;SDS011;13364;49.084;9.978;2022-07-29T06:38:04;5.85;;;5.25;;
25437;SDS011;13364;49.084;9.978;2022-07-29T06:40:51;6.20;;;5.60;;
25437;SDS011;13364;49.084;9.978;2022-07-29T06:43:33;5.80;;;5.18;;
25437;SDS011;13364;49.084;9.978;2022-07-29T06:46:20;5.97;;;5.40;;
25437;SDS011;13364;49.084;9.978;2022-07-29T06:48:48;5.15;;;4.65;;
25437;SDS011;13364;49.084;9.978;2022-07-29T06:51:16;5.95;;;4.80;;
25437;SDS011;13364;49.084;9.978;2022-07-29T06:53:48;6.63;;;4.82;;
25437;SDS011;13364;49.084;9.978;2022-07-29T06:59:06;7.40;;;4.63;;
25437;SDS011;13364;49.084;9.978;2022-07-29T07:01:35;5.93;;;4.70;;
25437;SDS011;13364;49.084;9.978;2022-07-29T07:04:03;5.10;;;4.60;;
25437;SDS011;13364;49.084;9.978;2022-07-29T07:06:30;4.05;;;3.65;;
25437;SDS011;13364;49.084;9.978;2022-07-29T07:08:58;5.15;;;4.20;;
25437;SDS011;13364;49.084;9.978;2022-07-29T07:11:25;4.75;;;4.32;;
25437;SDS011;13364;49.084;9.978;2022-07-29T07:13:52;4.50;;;4.07;;
25437;SDS011;13364;49.084;9.978;2022-07-29T07:16:26;5.43;;;4.45;;
25437;SDS011;13364;49.084;9.978;2022-07-29T07:18:53;6.40;;;4.50;;
25437;SDS011;13364;49.084;9.978;2022-07-29T07:21:20;5.85;;;4.15;;
25437;SDS011;13364;49.084;9.978;2022-07-29T07:23:47;6.95;;;4.57;;
25437;SDS011;13364;49.084;9.978;2022-07-29T07:30:13;4.50;;;3.78;;
25437;SDS011;13364;49.084;9.978;2022-07-29T07:32:40;5.10;;;3.88;;
25437;SDS011;13364;49.084;9.978;2022-07-29T07:35:07;4.22;;;3.80;;
25437;SDS011;13364;49.084;9.978;2022-07-29T07:37:35;4.72;;;3.85;;
25437;SDS011;13364;49.084;9.978;2022-07-29T07:40:03;4.35;;;4.05;;
25437;SDS011;13364;49.084;9.978;2022-07-29T07:42:31;5.05;;;4.55;;
25437;SDS011;13364;49.084;9.978;2022-07-29T07:44:58;5.18;;;4.10;;
25437;SDS011;13364;49.084;9.978;2022-07-29T07:47:39;5.80;;;3.78;;
25437;SDS011;13364;49.084;9.978;2022-07-29T07:50:06;4.95;;;4.10;;
25437;SDS011;13364;49.084;9.978;2022-07-29T07:52:50;3.80;;;3.50;;
25437;SDS011;13364;49.084;9.978;2022-07-29T07:55:19;4.97;;;3.83;;
25437;SDS011;13364;49.084;9.978;2022-07-29T07:57:46;5.93;;;3.47;;
25437;SDS011;13364;49.084;9.978;2022-07-29T08:00:14;4.88;;;3.83;;
25437;SDS011;13364;49.084;9.978;2022-07-29T08:02:42;4.05;;;3.50;;
25437;SDS011;13364;49.084;9.978;2022-07-29T08:05:11;3.10;;;2.80;;
25437;SDS011;13364;49.084;9.978;2022-07-29T08:07:43;3.97;;;3.20;;
25437;SDS011;13364;49.084;9.978;2022-07-29T08:10:13;5.72;;;3.25;;
25437;SDS011;13364;49.084;9.978;2022-07-29T08:12:41;5.43;;;3.03;;
25437;SDS011;13364;49.084;9.978;2022-07-29T08:15:08;4.65;;;3.20;;
25437;SDS011;13364;49.084;9.978;2022-07-29T08:17:35;4.13;;;3.55;;
25437;SDS011;13364;49.084;9.978;2022-07-29T08:20:02;5.07;;;2.90;;
25437;SDS011;13364;49.084;9.978;2022-07-29T08:22:30;3.03;;;2.72;;
25437;SDS011;13364;49.084;9.978;2022-07-29T08:24:57;5.05;;;2.88;;
25437;SDS011;13364;49.084;9.978;2022-07-29T08:27:24;2.70;;;2.50;;
25437;SDS011;13364;49.084;9.978;2022-07-29T08:30:08;3.22;;;2.92;;
25437;SDS011;13364;49.084;9.978;2022-07-29T08:32:36;3.00;;;2.72;;
25437;SDS011;13364;49.084;9.978;2022-07-29T08:35:21;3.55;;;2.75;;
25437;SDS011;13364;49.084;9.978;2022-07-29T08:37:49;2.85;;;2.50;;
25437;SDS011;13364;49.084;9.978;2022-07-29T08:40:17;3.25;;;2.95;;
25437;SDS011;13364;49.084;9.978;2022-07-29T08:42:56;3.57;;;2.90;;
25437;SDS011;13364;49.084;9.978;2022-07-29T08:45:23;4.93;;;3.00;;
25437;SDS011;13364;49.084;9.978;2022-07-29T08:47:51;2.67;;;2.47;;
25437;SDS011;13364;49.084;9.978;2022-07-29T08:50:19;2.80;;;2.60;;
25437;SDS011;13364;49.084;9.978;2022-07-29T08:52:46;3.33;;;2.80;;
25437;SDS011;13364;49.084;9.978;2022-07-29T08:55:15;3.45;;;3.15;;
25437;SDS011;13364;49.084;9.978;2022-07-29T08:57:46;6.80;;;3.08;;
25437;SDS011;13364;49.084;9.978;2022-07-29T09:00:19;3.28;;;2.70;;
25437;SDS011;13364;49.084;9.978;2022-07-29T09:02:50;3.08;;;2.50;;
25437;SDS011;13364;49.084;9.978;2022-07-29T09:05:23;3.63;;;2.72;;
25437;SDS011;13364;49.084;9.978;2022-07-29T09:07:51;4.80;;;3.10;;
25437;SDS011;13364;49.084;9.978;2022-07-29T09:10:18;3.13;;;2.90;;
25437;SDS011;13364;49.084;9.978;2022-07-29T09:12:46;3.25;;;2.95;;
25437;SDS011;13364;49.084;9.978;2022-07-29T09:15:13;2.78;;;2.58;;
25437;SDS011;13364;49.084;9.978;2022-07-29T09:20:14;2.60;;;2.40;;
25437;SDS011;13364;49.084;9.978;2022-07-29T09:22:49;3.85;;;3.03;;
25437;SDS011;13364;49.084;9.978;2022-07-29T09:25:35;4.07;;;2.78;;
25437;SDS011;13364;49.084;9.978;2022-07-29T09:28:10;2.80;;;2.60;;
25437;SDS011;13364;49.084;9.978;2022-07-29T09:31:00;4.07;;;2.75;;
25437;SDS011;13364;49.084;9.978;2022-07-29T09:33:33;3.75;;;3.20;;
25437;SDS011;13364;49.084;9.978;2022-07-29T09:36:07;4.00;;;3.13;;
25437;SDS011;13364;49.084;9.978;2022-07-29T09:41:44;3.17;;;2.78;;
25437;SDS011;13364;49.084;9.978;2022-07-29T09:44:21;4.53;;;2.63;;
25437;SDS011;13364;49.084;9.978;2022-07-29T09:49:51;4.13;;;3.13;;
25437;SDS011;13364;49.084;9.978;2022-07-29T09:52:26;4.50;;;3.10;;
25437;SDS011;13364;49.084;9.978;2022-07-29T09:55:05;6.53;;;3.30;;
25437;SDS011;13364;49.084;9.978;2022-07-29T09:57:39;3.20;;;2.90;;
25437;SDS011;13364;49.084;9.978;2022-07-29T10:00:11;5.10;;;3.10;;
25437;SDS011;13364;49.084;9.978;2022-07-29T10:02:42;3.90;;;3.33;;
25437;SDS011;13364;49.084;9.978;2022-07-29T10:05:23;4.05;;;3.63;;
25437;SDS011;13364;49.084;9.978;2022-07-29T10:08:01;4.57;;;3.20;;
25437;SDS011;13364;49.084;9.978;2022-07-29T10:10:32;5.72;;;3.42;;
25437;SDS011;13364;49.084;9.978;2022-07-29T10:16:34;3.92;;;3.50;;
25437;SDS011;13364;49.084;9.978;2022-07-29T10:19:02;4.90;;;3.90;;
25437;SDS011;13364;49.084;9.978;2022-07-29T10:21:29;3.78;;;3.00;;
25437;SDS011;13364;49.084;9.978;2022-07-29T10:24:04;3.90;;;3.47;;
25437;SDS011;13364;49.084;9.978;2022-07-29T10:26:40;5.18;;;3.60;;
25437;SDS011;13364;49.084;9.978;2022-07-29T10:29:08;4.00;;;3.40;;
25437;SDS011;13364;49.084;9.978;2022-07-29T10:37:14;3.83;;;3.53;;
25437;SDS011;13364;49.084;9.978;2022-07-29T10:43:02;4.07;;;3.67;;
25437;SDS011;13364;49.084;9.978;2022-07-29T10:45:48;5.22;;;3.90;;
25437;SDS011;13364;49.084;9.978;2022-07-29T10:48:23;3.88;;;3.47;;
25437;SDS011;13364;49.084;9.978;2022-07-29T10:50:54;5.30;;;4.22;;
25437;SDS011;13364;49.084;9.978;2022-07-29T10:53:51;6.47;;;3.83;;
25437;SDS011;13364;49.084;9.978;2022-07-29T10:56:23;4.20;;;3.80;;
25437;SDS011;13364;49.084;9.978;2022-07-29T11:06:07;4.53;;;3.33;;
25437;SDS011;13364;49.084;9.978;2022-07-29T11:08:35;4.00;;;3.70;;
25437;SDS011;13364;49.084;9.978;2022-07-29T11:13:55;4.15;;;3.70;;
25437;SDS011;13364;49.084;9.978;2022-07-29T11:16:22;3.78;;;3.42;;
25437;SDS011;13364;49.084;9.978;2022-07-29T11:21:39;3.72;;;3.30;;
25437;SDS011;13364;49.084;9.978;2022-07-29T11:24:25;5.03;;;3.97;;
25437;SDS011;13364;49.084;9.978;2022-07-29T11:27:07;4.93;;;4.00;;
25437;SDS011;13364;49.084;9.978;2022-07-29T11:29:49;3.75;;;3.45;;
25437;SDS011;13364;49.084;9.978;2022-07-29T11:32:19;3.63;;;3.33;;
25437;SDS011;13364;49.084;9.978;2022-07-29T11:35:20;6.28;;;3.58;;
25437;SDS011;13364;49.084;9.978;2022-07-29T11:43:57;4.93;;;3.95;;
25437;SDS011;13364;49.084;9.978;2022-07-29T11:46:46;4.30;;;3.90;;
25437;SDS011;13364;49.084;9.978;2022-07-29T11:49:23;6.68;;;3.80;;
25437;SDS011;13364;49.084;9.978;2022-07-29T11:51:58;6.45;;;4.00;;
25437;SDS011;13364;49.084;9.978;2022-07-29T11:54:33;4.85;;;4.25;;
25437;SDS011;13364;49.084;9.978;2022-07-29T11:57:21;4.80;;;4.30;;
25437;SDS011;13364;49.084;9.978;2022-07-29T12:00:05;7.18;;;4.25;;
25437;SDS011;13364;49.084;9.978;2022-07-29T12:02:40;6.43;;;4.43;;
25437;SDS011;13364;49.084;9.978;2022-07-29T12:05:14;5.35;;;4.10;;
25437;SDS011;13364;49.084;9.978;2022-07-29T12:08:05;4.85;;;4.35;;
25437;SDS011;13364;49.084;9.978;2022-07-29T12:10:38;5.75;;;4.60;;
25437;SDS011;13364;49.084;9.978;2022-07-29T12:13:07;5.13;;;4.25;;
25437;SDS011;13364;49.084;9.978;2022-07-29T12:15:35;5.30;;;3.83;;
25437;SDS011;13364;49.084;9.978;2022-07-29T12:18:17;5.68;;;4.40;;
25437;SDS011;13364;49.084;9.978;2022-07-29T12:20:56;5.82;;;4.93;;
25437;SDS011;13364;49.084;9.978;2022-07-29T12:23:30;7.03;;;4.20;;
25437;SDS011;13364;49.084;9.978;2022-07-29T12:26:00;5.68;;;4.15;;
25437;SDS011;13364;49.084;9.978;2022-07-29T12:28:38;7.82;;;4.70;;
25437;SDS011;13364;49.084;9.978;2022-07-29T12:31:11;5.47;;;4.57;;
25437;SDS011;13364;49.084;9.978;2022-07-29T12:34:00;6.75;;;5.30;;
25437;SDS011;13364;49.084;9.978;2022-07-29T12:36:27;5.28;;;4.78;;
25437;SDS011;13364;49.084;9.978;2022-07-29T12:38:55;5.05;;;4.65;;
25437;SDS011;13364;49.084;9.978;2022-07-29T12:41:22;6.00;;;4.65;;
25437;SDS011;13364;49.084;9.978;2022-07-29T12:43:52;8.20;;;5.05;;
25437;SDS011;13364;49.084;9.978;2022-07-29T12:46:20;7.18;;;5.07;;
25437;SDS011;13364;49.084;9.978;2022-07-29T12:48:50;6.97;;;4.70;;
25437;SDS011;13364;49.084;9.978;2022-07-29T12:51:30;9.57;;;5.07;;
25437;SDS011;13364;49.084;9.978;2022-07-29T12:54:03;7.05;;;5.05;;
25437;SDS011;13364;49.084;9.978;2022-07-29T12:56:37;5.43;;;4.90;;
25437;SDS011;13364;49.084;9.978;2022-07-29T13:01:47;6.10;;;4.78;;
25437;SDS011;13364;49.084;9.978;2022-07-29T13:04:29;6.40;;;5.00;;
25437;SDS011;13364;49.084;9.978;2022-07-29T13:06:59;6.78;;;5.35;;
25437;SDS011;13364;49.084;9.978;2022-07-29T13:09:42;5.88;;;5.15;;
25437;SDS011;13364;49.084;9.978;2022-07-29T13:12:12;6.47;;;4.97;;
25437;SDS011;13364;49.084;9.978;2022-07-29T13:14:41;8.25;;;4.82;;
25437;SDS011;13364;49.084;9.978;2022-07-29T13:22:17;6.78;;;4.85;;
25437;SDS011;13364;49.084;9.978;2022-07-29T13:24:49;5.88;;;4.95;;
25437;SDS011;13364;49.084;9.978;2022-07-29T13:27:22;6.47;;;5.28;;
25437;SDS011;13364;49.084;9.978;2022-07-29T13:32:19;6.82;;;4.95;;
25437;SDS011;13364;49.084;9.978;2022-07-29T13:34:54;7.68;;;5.35;;
25437;SDS011;13364;49.084;9.978;2022-07-29T13:37:25;6.70;;;5.25;;
25437;SDS011;13364;49.084;9.978;2022-07-29T13:39:56;6.78;;;5.35;;
25437;SDS011;13364;49.084;9.978;2022-07-29T13:42:23;6.68;;;5.07;;
25437;SDS011;13364;49.084;9.978;2022-07-29T13:44:51;5.35;;;4.85;;
25437;SDS011;13364;49.084;9.978;2022-07-29T13:50:14;14.90;;;5.30;;
25437;SDS011;13364;49.084;9.978;2022-07-29T13:52:41;7.07;;;4.90;;
25437;SDS011;13364;49.084;9.978;2022-07-29T13:55:09;8.60;;;5.82;;
25437;SDS011;13364;49.084;9.978;2022-07-29T13:57:36;5.72;;;5.22;;
25437;SDS011;13364;49.084;9.978;2022-07-29T14:00:03;7.68;;;4.55;;
25437;SDS011;13364;49.084;9.978;2022-07-29T14:02:33;4.53;;;4.05;;
25437;SDS011;13364;49.084;9.978;2022-07-29T14:05:00;4.35;;;3.50;;
25437;SDS011;13364;49.084;9.978;2022-07-29T14:07:33;4.95;;;3.15;;
25437;SDS011;13364;49.084;9.978;2022-07-29T14:10:00;11.35;;;3.20;;
25437;SDS011;13364;49.084;9.978;2022-07-29T14:12:27;5.72;;;3.67;;
25437;SDS011;13364;49.084;9.978;2022-07-29T14:14:55;6.75;;;2.90;;
25437;SDS011;13364;49.084;9.978;2022-07-29T14:17:22;10.90;;;2.40;;
25437;SDS011;13364;49.084;9.978;2022-07-29T14:19:49;5.25;;;2.45;;
25437;SDS011;13364;49.084;9.978;2022-07-29T14:22:16;6.70;;;2.13;;
25437;SDS011;13364;49.084;9.978;2022-07-29T14:24:48;2.90;;;1.75;;
25437;SDS011;13364;49.084;9.978;2022-07-29T14:27:15;3.47;;;2.20;;
25437;SDS011;13364;49.084;9.978;2022-07-29T14:29:43;2.88;;;1.77;;
25437;SDS011;13364;49.084;9.978;2022-07-29T14:32:10;4.20;;;2.20;;
25437;SDS011;13364;49.084;9.978;2022-07-29T14:34:37;4.05;;;2.15;;
25437;SDS011;13364;49.084;9.978;2022-07-29T14:37:05;2.80;;;2.17;;
25437;SDS011;13364;49.084;9.978;2022-07-29T14:39:33;2.08;;;1.92;;
25437;SDS011;13364;49.084;9.978;2022-07-29T14:42:08;2.40;;;2.08;;
25437;SDS011;13364;49.084;9.978;2022-07-29T14:44:38;2.97;;;2.17;;
25437;SDS011;13364;49.084;9.978;2022-07-29T14:47:06;6.05;;;2.25;;
25437;SDS011;13364;49.084;9.978;2022-07-29T14:49:34;4.13;;;2.20;;
25437;SDS011;13364;49.084;9.978;2022-07-29T14:52:01;2.20;;;2.00;;
25437;SDS011;13364;49.084;9.978;2022-07-29T14:54:29;2.33;;;2.10;;
25437;SDS011;13364;49.084;9.978;2022-07-29T14:56:56;4.70;;;2.28;;
25437;SDS011;13364;49.084;9.978;2022-07-29T14:59:24;3.88;;;1.90;;
25437;SDS011;13364;49.084;9.978;2022-07-29T15:01:51;2.15;;;1.90;;
25437;SDS011;13364;49.084;9.978;2022-07-29T15:04:19;2.78;;;2.38;;
25437;SDS011;13364;49.084;9.978;2022-07-29T15:06:46;2.10;;;1.83;;
25437;SDS011;13364;49.084;9.978;2022-07-29T15:09:14;2.60;;;2.40;;
25437;SDS011;13364;49.084;9.978;2022-07-29T15:11:41;3.33;;;2.45;;
25437;SDS011;13364;49.084;9.978;2022-07-29T15:14:08;2.83;;;2.53;;
25437;SDS011;13364;49.084;9.978;2022-07-29T15:16:36;2.58;;;2.38;;
25437;SDS011;13364;49.084;9.978;2022-07-29T15:19:07;3.60;;;3.05;;
25437;SDS011;13364;49.084;9.978;2022-07-29T15:21:35;3.78;;;3.17;;
25437;SDS011;13364;49.084;9.978;2022-07-29T15:24:22;3.75;;;3.00;;
25437;SDS011;13364;49.084;9.978;2022-07-29T15:26:49;3.10;;;2.85;;
25437;SDS011;13364;49.084;9.978;2022-07-29T15:29:16;5.38;;;2.85;;
25437;SDS011;13364;49.084;9.978;2022-07-29T15:31:43;5.57;;;3.42;;
25437;SDS011;13364;49.084;9.978;2022-07-29T15:34:10;3.80;;;3.00;;
25437;SDS011;13364;49.084;9.978;2022-07-29T15:36:37;5.20;;;3.22;;
25437;SDS011;13364;49.084;9.978;2022-07-29T15:43:37;3.38;;;3.08;;
25437;SDS011;13364;49.084;9.978;2022-07-29T15:46:05;4.28;;;3.30;;
25437;SDS011;13364;49.084;9.978;2022-07-29T15:48:51;3.58;;;3.28;;
25437;SDS011;13364;49.084;9.978;2022-07-29T15:51:18;7.35;;;3.30;;
25437;SDS011;13364;49.084;9.978;2022-07-29T15:53:45;4.07;;;3.40;;
25437;SDS011;13364;49.084;9.978;2022-07-29T15:56:18;4.82;;;3.63;;
25437;SDS011;13364;49.084;9.978;2022-07-29T15:58:46;5.53;;;3.80;;
25437;SDS011;13364;49.084;9.978;2022-07-29T16:01:13;4.57;;;3.95;;
25437;SDS011;13364;49.084;9.978;2022-07-29T16:03:40;8.02;;;3.95;;
25437;SDS011;13364;49.084;9.978;2022-07-29T16:06:11;8.25;;;4.30;;
25437;SDS011;13364;49.084;9.978;2022-07-29T16:08:38;6.75;;;3.97;;
25437;SDS011;13364;49.084;9.978;2022-07-29T16:11:05;7.97;;;4.53;;
25437;SDS011;13364;49.084;9.978;2022-07-29T16:13:33;5.22;;;4.10;;
25437;SDS011;13364;49.084;9.978;2022-07-29T16:16:00;4.85;;;4.00;;
25437;SDS011;13364;49.084;9.978;2022-07-29T16:18:28;6.20;;;4.25;;
25437;SDS011;13364;49.084;9.978;2022-07-29T16:20:56;4.47;;;4.05;;
25437;SDS011;13364;49.084;9.978;2022-07-29T16:23:23;6.05;;;4.28;;
25437;SDS011;13364;49.084;9.978;2022-07-29T16:25:50;6.53;;;4.30;;
25437;SDS011;13364;49.084;9.978;2022-07-29T16:28:27;6.18;;;4.15;;
25437;SDS011;13364;49.084;9.978;2022-07-29T16:30:54;8.40;;;4.07;;
25437;SDS011;13364;49.084;9.978;2022-07-29T16:33:22;6.30;;;4.20;;
25437;SDS011;13364;49.084;9.978;2022-07-29T16:35:50;8.13;;;4.05;;
25437;SDS011;13364;49.084;9.978;2022-07-29T16:38:18;5.40;;;3.85;;
25437;SDS011;13364;49.084;9.978;2022-07-29T16:40:45;6.22;;;4.28;;
25437;SDS011;13364;49.084;9.978;2022-07-29T16:43:12;5.30;;;3.92;;
25437;SDS011;13364;49.084;9.978;2022-07-29T16:45:39;5.25;;;3.50;;